EDT,Max TemperatureF,Mean TemperatureF,Min TemperatureF,Max Dew PointF,MeanDew PointF,Min DewpointF,Max Humidity, Mean Humidity, Min Humidity, Max Sea Level PressureIn, Mean Sea Level PressureIn, Min Sea Level PressureIn, Max VisibilityMiles, Mean VisibilityMiles, Min VisibilityMiles, Max Wind SpeedMPH, Mean Wind SpeedMPH, Max Gust SpeedMPH,PrecipitationIn, CloudCover, Events, WindDirDegrees
2012-9-1,79,72,66,71,62,55,91,74,54,30.10,30.06,30.01,10,10,2,10,4,16,0.00,2,Rain,71
2012-9-2,83,75,67,69,64,60,85,72,60,30.02,29.96,29.92,10,10,10,15,7,20,0.00,2,,93
2012-9-3,84,74,64,70,66,61,92,77,56,29.95,29.92,29.88,10,10,7,10,5,,0.00,0,,44
2012-9-4,80,73,66,70,67,65,96,84,65,29.93,29.88,29.85,10,8,4,16,2,26,0.00,1,Rain,310
2012-9-5,81,73,65,69,66,64,96,83,57,29.92,29.83,29.75,10,10,5,15,3,25,0.00,2,Rain,213
2012-9-6,78,70,61,69,66,61,97,85,66,29.94,29.90,29.81,10,9,0,10,2,,0.00,2,Fog,295
2012-9-7,78,67,56,64,59,51,100,83,55,29.93,29.85,29.75,10,8,1,18,2,29,0.00,3,Rain,13
2012-9-8,67,60,52,54,50,14,96,70,21,29.85,29.82,29.76,10,10,7,15,5,26,0.00,4,Rain,324
2012-9-9,68,60,51,51,32,-32,62,37,4,30.13,29.99,29.83,10,9,2,14,5,28,0.00,3,Rain,348
2012-9-10,73,64,55,56,52,47,94,61,40,30.23,30.17,30.12,10,10,10,8,1,,0.00,0,,270
2012-9-11,80,67,54,58,53,50,89,62,38,30.18,30.14,30.09,10,10,10,16,4,29,0.00,0,,202
2012-9-12,82,70,59,61,56,54,85,59,39,30.19,30.15,30.12,10,10,10,14,7,21,0.00,0,,211
2012-9-13,73,64,56,66,59,52,96,74,61,30.31,30.22,30.16,10,10,7,14,6,24,0.00,6,Rain,319
2012-9-14,71,60,48,55,50,45,99,75,39,30.32,30.30,30.28,10,9,0,12,4,17,0.00,2,Fog-Rain,304
2012-9-15,75,60,46,52,46,37,98,69,26,30.32,30.26,30.15,10,10,10,9,1,,0.00,0,,250
2012-9-16,75,62,49,59,52,46,97,73,43,30.15,30.08,30.00,10,10,10,9,1,,0.00,0,,272
2012-9-17,75,64,54,63,57,50,95,74,54,30.00,29.87,29.72,10,10,2,13,3,22,0.00,3,Rain,223
2012-9-18,63,58,49,61,47,32,93,72,35,29.99,29.82,29.71,10,9,2,21,10,32,0.00,7,Rain,351
2012-9-19,69,56,43,45,37,31,87,44,28,30.08,29.98,29.85,10,10,10,18,6,29,0.00,2,,204
2012-9-20,68,60,51,52,46,39,89,56,36,29.90,29.87,29.83,10,10,10,15,9,26,0.00,3,Rain,246
2012-9-21,66,58,51,55,46,36,97,67,39,29.92,29.88,29.78,10,10,3,17,5,25,0.00,4,Rain,246
2012-9-22,59,53,47,52,47,41,98,78,54,30.10,29.90,29.74,10,10,2,24,6,30,0.00,6,Rain,295
2012-9-23,57,48,39,47,40,35,95,67,47,30.23,30.18,30.10,10,10,2,13,5,21,0.00,7,Rain,318
2012-9-24,65,52,40,42,37,33,95,53,31,30.21,30.08,29.90,10,10,10,18,7,29,0.00,2,,209
2012-9-25,71,60,49,61,50,39,94,66,51,29.92,29.88,29.84,10,10,7,10,5,,0.00,2,,202
2012-9-26,69,61,53,64,55,47,99,81,50,30.16,30.00,29.86,10,6,0,15,4,21,0.00,3,Fog,351
2012-9-27,69,54,40,56,48,40,99,79,53,30.21,30.16,30.12,10,10,7,10,2,16,0.00,4,,88
2012-9-28,67,57,46,52,50,46,97,77,51,30.18,30.14,30.10,10,10,10,12,5,17,0.00,2,,47
2012-9-29,68,54,41,56,50,41,99,84,57,30.12,30.04,29.97,10,10,7,12,2,16,0.00,0,,290
2012-9-30,66,56,46,50,46,38,99,76,35,29.99,29.96,29.94,10,10,5,13,4,18,0.00,1,,48